sensor_id;sensor_type;location;lat;lon;timestamp;P1;durP1;ratioP1;P2;durP2;ratioP2
73382;SDS011;61600;48.126;11.542;2023-04-03T00:00:32;10.98;;;5.35;;
73382;SDS011;61600;48.126;11.542;2023-04-03T00:02:58;11.43;;;5.45;;
73382;SDS011;61600;48.126;11.542;2023-04-03T00:05:23;12.93;;;5.25;;
73382;SDS011;61600;48.126;11.542;2023-04-03T00:07:49;9.00;;;4.70;;
73382;SDS011;61600;48.126;11.542;2023-04-03T00:10:15;9.27;;;4.85;;
73382;SDS011;61600;48.126;11.542;2023-04-03T00:12:44;12.13;;;5.95;;
73382;SDS011;61600;48.126;11.542;2023-04-03T00:15:10;9.75;;;4.70;;
73382;SDS011;61600;48.126;11.542;2023-04-03T00:17:36;9.48;;;4.75;;
73382;SDS011;61600;48.126;11.542;2023-04-03T00:20:05;8.95;;;4.63;;
73382;SDS011;61600;48.126;11.542;2023-04-03T00:22:31;7.20;;;4.40;;
73382;SDS011;61600;48.126;11.542;2023-04-03T00:25:00;9.07;;;4.60;;
73382;SDS011;61600;48.126;11.542;2023-04-03T00:27:25;6.22;;;3.50;;
73382;SDS011;61600;48.126;11.542;2023-04-03T00:29:51;12.07;;;4.68;;
73382;SDS011;61600;48.126;11.542;2023-04-03T00:32:17;7.90;;;4.70;;
73382;SDS011;61600;48.126;11.542;2023-04-03T00:34:43;8.55;;;4.75;;
73382;SDS011;61600;48.126;11.542;2023-04-03T00:37:09;8.65;;;4.18;;
73382;SDS011;61600;48.126;11.542;2023-04-03T00:39:35;8.57;;;4.53;;
73382;SDS011;61600;48.126;11.542;2023-04-03T00:42:00;6.93;;;4.40;;
73382;SDS011;61600;48.126;11.542;2023-04-03T00:46:58;7.85;;;3.85;;
73382;SDS011;61600;48.126;11.542;2023-04-03T00:49:29;8.35;;;4.35;;
73382;SDS011;61600;48.126;11.542;2023-04-03T00:51:59;8.95;;;4.18;;
73382;SDS011;61600;48.126;11.542;2023-04-03T00:54:25;6.15;;;3.90;;
73382;SDS011;61600;48.126;11.542;2023-04-03T00:56:52;8.43;;;3.97;;
73382;SDS011;61600;48.126;11.542;2023-04-03T00:59:21;7.72;;;4.20;;
73382;SDS011;61600;48.126;11.542;2023-04-03T01:01:55;8.75;;;4.25;;
73382;SDS011;61600;48.126;11.542;2023-04-03T01:04:34;7.25;;;4.00;;
73382;SDS011;61600;48.126;11.542;2023-04-03T01:07:15;7.47;;;4.47;;
73382;SDS011;61600;48.126;11.542;2023-04-03T01:09:44;9.10;;;4.05;;
73382;SDS011;61600;48.126;11.542;2023-04-03T01:12:25;7.35;;;4.10;;
73382;SDS011;61600;48.126;11.542;2023-04-03T01:14:57;9.02;;;4.75;;
73382;SDS011;61600;48.126;11.542;2023-04-03T01:25:35;6.57;;;3.83;;
73382;SDS011;61600;48.126;11.542;2023-04-03T01:28:09;6.93;;;3.95;;
73382;SDS011;61600;48.126;11.542;2023-04-03T01:33:27;7.32;;;3.83;;
73382;SDS011;61600;48.126;11.542;2023-04-03T01:35:53;9.57;;;4.90;;
73382;SDS011;61600;48.126;11.542;2023-04-03T01:38:18;6.47;;;3.90;;
73382;SDS011;61600;48.126;11.542;2023-04-03T01:40:45;10.90;;;5.07;;
73382;SDS011;61600;48.126;11.542;2023-04-03T01:43:11;9.88;;;4.55;;
73382;SDS011;61600;48.126;11.542;2023-04-03T01:45:37;8.63;;;4.28;;
73382;SDS011;61600;48.126;11.542;2023-04-03T01:48:03;7.28;;;3.90;;
73382;SDS011;61600;48.126;11.542;2023-04-03T01:50:29;8.32;;;4.30;;
73382;SDS011;61600;48.126;11.542;2023-04-03T01:52:57;8.20;;;4.78;;
73382;SDS011;61600;48.126;11.542;2023-04-03T01:55:23;7.32;;;4.60;;
73382;SDS011;61600;48.126;11.542;2023-04-03T01:57:50;7.18;;;3.88;;
73382;SDS011;61600;48.126;11.542;2023-04-03T02:00:16;8.93;;;4.32;;
73382;SDS011;61600;48.126;11.542;2023-04-03T02:02:42;6.55;;;3.85;;
73382;SDS011;61600;48.126;11.542;2023-04-03T02:05:08;8.57;;;4.40;;
73382;SDS011;61600;48.126;11.542;2023-04-03T02:07:36;7.90;;;4.60;;
73382;SDS011;61600;48.126;11.542;2023-04-03T02:10:02;8.13;;;4.32;;
73382;SDS011;61600;48.126;11.542;2023-04-03T02:12:28;9.43;;;4.13;;
73382;SDS011;61600;48.126;11.542;2023-04-03T02:14:54;8.15;;;4.10;;
73382;SDS011;61600;48.126;11.542;2023-04-03T02:17:20;6.90;;;4.05;;
73382;SDS011;61600;48.126;11.542;2023-04-03T02:19:45;11.85;;;4.80;;
73382;SDS011;61600;48.126;11.542;2023-04-03T02:22:11;6.93;;;4.03;;
73382;SDS011;61600;48.126;11.542;2023-04-03T02:24:37;6.90;;;3.92;;
73382;SDS011;61600;48.126;11.542;2023-04-03T02:27:04;9.07;;;4.57;;
73382;SDS011;61600;48.126;11.542;2023-04-03T02:29:30;9.73;;;4.13;;
73382;SDS011;61600;48.126;11.542;2023-04-03T02:31:55;6.75;;;3.45;;
73382;SDS011;61600;48.126;11.542;2023-04-03T02:34:21;6.63;;;3.83;;
73382;SDS011;61600;48.126;11.542;2023-04-03T02:36:50;6.47;;;3.72;;
73382;SDS011;61600;48.126;11.542;2023-04-03T02:39:16;6.68;;;3.42;;
73382;SDS011;61600;48.126;11.542;2023-04-03T02:41:42;6.53;;;3.40;;
73382;SDS011;61600;48.126;11.542;2023-04-03T02:44:09;7.57;;;4.05;;
73382;SDS011;61600;48.126;11.542;2023-04-03T02:46:36;7.20;;;3.55;;
73382;SDS011;61600;48.126;11.542;2023-04-03T02:49:02;4.68;;;3.20;;
73382;SDS011;61600;48.126;11.542;2023-04-03T02:51:28;7.00;;;3.83;;
73382;SDS011;61600;48.126;11.542;2023-04-03T02:53:54;7.22;;;3.28;;
73382;SDS011;61600;48.126;11.542;2023-04-03T02:56:20;7.85;;;3.50;;
73382;SDS011;61600;48.126;11.542;2023-04-03T02:58:46;6.68;;;3.60;;
73382;SDS011;61600;48.126;11.542;2023-04-03T03:01:12;7.32;;;3.08;;
73382;SDS011;61600;48.126;11.542;2023-04-03T03:03:37;6.05;;;3.35;;
73382;SDS011;61600;48.126;11.542;2023-04-03T03:06:04;7.75;;;3.47;;
73382;SDS011;61600;48.126;11.542;2023-04-03T03:08:32;5.65;;;2.75;;
73382;SDS011;61600;48.126;11.542;2023-04-03T03:10:58;5.70;;;2.92;;
73382;SDS011;61600;48.126;11.542;2023-04-03T03:13:24;6.32;;;3.63;;
73382;SDS011;61600;48.126;11.542;2023-04-03T03:15:50;4.88;;;2.90;;
73382;SDS011;61600;48.126;11.542;2023-04-03T03:18:16;5.45;;;3.03;;
73382;SDS011;61600;48.126;11.542;2023-04-03T03:20:42;6.28;;;3.03;;
73382;SDS011;61600;48.126;11.542;2023-04-03T03:23:08;5.75;;;3.03;;
73382;SDS011;61600;48.126;11.542;2023-04-03T03:25:40;11.38;;;3.15;;
73382;SDS011;61600;48.126;11.542;2023-04-03T03:28:06;5.93;;;3.53;;
73382;SDS011;61600;48.126;11.542;2023-04-03T03:30:32;5.75;;;3.00;;
73382;SDS011;61600;48.126;11.542;2023-04-03T03:32:59;5.28;;;3.17;;
73382;SDS011;61600;48.126;11.542;2023-04-03T03:35:25;7.70;;;3.10;;
73382;SDS011;61600;48.126;11.542;2023-04-03T03:37:50;5.57;;;2.80;;
73382;SDS011;61600;48.126;11.542;2023-04-03T03:40:16;4.72;;;2.63;;
73382;SDS011;61600;48.126;11.542;2023-04-03T03:42:42;5.85;;;2.75;;
73382;SDS011;61600;48.126;11.542;2023-04-03T03:45:08;5.25;;;2.72;;
73382;SDS011;61600;48.126;11.542;2023-04-03T03:47:34;7.25;;;3.85;;
73382;SDS011;61600;48.126;11.542;2023-04-03T03:50:02;5.00;;;2.65;;
73382;SDS011;61600;48.126;11.542;2023-04-03T03:52:28;4.57;;;2.50;;
73382;SDS011;61600;48.126;11.542;2023-04-03T03:54:55;5.45;;;2.80;;
73382;SDS011;61600;48.126;11.542;2023-04-03T03:57:21;4.35;;;2.17;;
73382;SDS011;61600;48.126;11.542;2023-04-03T03:59:47;5.82;;;2.80;;
73382;SDS011;61600;48.126;11.542;2023-04-03T04:02:14;4.53;;;2.30;;
73382;SDS011;61600;48.126;11.542;2023-04-03T04:04:40;7.53;;;4.03;;
73382;SDS011;61600;48.126;11.542;2023-04-03T04:07:06;5.07;;;2.63;;
73382;SDS011;61600;48.126;11.542;2023-04-03T04:09:32;4.78;;;2.30;;
73382;SDS011;61600;48.126;11.542;2023-04-03T04:11:57;8.95;;;3.20;;
73382;SDS011;61600;48.126;11.542;2023-04-03T04:14:23;3.95;;;2.50;;
73382;SDS011;61600;48.126;11.542;2023-04-03T04:16:49;5.80;;;2.80;;
73382;SDS011;61600;48.126;11.542;2023-04-03T04:19:15;5.20;;;2.95;;
73382;SDS011;61600;48.126;11.542;2023-04-03T04:21:40;4.82;;;2.40;;
73382;SDS011;61600;48.126;11.542;2023-04-03T04:24:07;4.97;;;2.78;;
73382;SDS011;61600;48.126;11.542;2023-04-03T04:26:33;4.63;;;2.70;;
73382;SDS011;61600;48.126;11.542;2023-04-03T04:28:59;5.90;;;2.63;;
73382;SDS011;61600;48.126;11.542;2023-04-03T04:31:25;4.43;;;2.38;;
73382;SDS011;61600;48.126;11.542;2023-04-03T04:33:52;5.38;;;2.45;;
73382;SDS011;61600;48.126;11.542;2023-04-03T04:36:18;4.47;;;2.70;;
73382;SDS011;61600;48.126;11.542;2023-04-03T04:38:45;5.47;;;2.83;;
73382;SDS011;61600;48.126;11.542;2023-04-03T04:41:11;6.47;;;2.70;;
73382;SDS011;61600;48.126;11.542;2023-04-03T04:43:36;4.40;;;2.38;;
73382;SDS011;61600;48.126;11.542;2023-04-03T04:46:04;4.20;;;2.40;;
73382;SDS011;61600;48.126;11.542;2023-04-03T04:48:34;4.78;;;2.83;;
73382;SDS011;61600;48.126;11.542;2023-04-03T04:51:01;5.75;;;2.72;;
73382;SDS011;61600;48.126;11.542;2023-04-03T04:53:27;5.45;;;2.80;;
73382;SDS011;61600;48.126;11.542;2023-04-03T04:55:53;16.15;;;3.13;;
73382;SDS011;61600;48.126;11.542;2023-04-03T04:58:19;6.03;;;3.10;;
73382;SDS011;61600;48.126;11.542;2023-04-03T05:00:45;4.80;;;2.97;;
73382;SDS011;61600;48.126;11.542;2023-04-03T05:03:11;5.50;;;2.78;;
73382;SDS011;61600;48.126;11.542;2023-04-03T05:05:37;5.32;;;2.85;;
73382;SDS011;61600;48.126;11.542;2023-04-03T05:08:03;5.40;;;2.60;;
73382;SDS011;61600;48.126;11.542;2023-04-03T05:10:30;5.20;;;2.70;;
73382;SDS011;61600;48.126;11.542;2023-04-03T05:12:56;4.80;;;2.60;;
73382;SDS011;61600;48.126;11.542;2023-04-03T05:15:22;5.57;;;2.75;;
73382;SDS011;61600;48.126;11.542;2023-04-03T05:17:48;4.20;;;2.38;;
73382;SDS011;61600;48.126;11.542;2023-04-03T05:20:15;6.63;;;2.95;;
73382;SDS011;61600;48.126;11.542;2023-04-03T05:22:41;6.85;;;3.10;;
73382;SDS011;61600;48.126;11.542;2023-04-03T05:25:07;5.28;;;2.92;;
73382;SDS011;61600;48.126;11.542;2023-04-03T05:27:33;6.40;;;2.50;;
73382;SDS011;61600;48.126;11.542;2023-04-03T05:29:59;4.72;;;2.15;;
73382;SDS011;61600;48.126;11.542;2023-04-03T05:32:25;5.05;;;2.80;;
73382;SDS011;61600;48.126;11.542;2023-04-03T05:37:19;5.35;;;2.63;;
73382;SDS011;61600;48.126;11.542;2023-04-03T05:39:45;6.22;;;2.72;;
73382;SDS011;61600;48.126;11.542;2023-04-03T05:42:11;4.93;;;2.30;;
73382;SDS011;61600;48.126;11.542;2023-04-03T05:44:38;6.00;;;2.78;;
73382;SDS011;61600;48.126;11.542;2023-04-03T05:47:04;4.63;;;2.78;;
73382;SDS011;61600;48.126;11.542;2023-04-03T05:49:30;5.53;;;3.10;;
73382;SDS011;61600;48.126;11.542;2023-04-03T05:51:55;6.55;;;3.00;;
73382;SDS011;61600;48.126;11.542;2023-04-03T05:54:23;7.82;;;2.83;;
73382;SDS011;61600;48.126;11.542;2023-04-03T05:56:53;6.93;;;2.80;;
73382;SDS011;61600;48.126;11.542;2023-04-03T05:59:20;4.65;;;2.42;;
73382;SDS011;61600;48.126;11.542;2023-04-03T06:01:46;5.75;;;3.05;;
73382;SDS011;61600;48.126;11.542;2023-04-03T06:04:13;10.82;;;3.53;;
73382;SDS011;61600;48.126;11.542;2023-04-03T06:06:50;6.15;;;2.72;;
73382;SDS011;61600;48.126;11.542;2023-04-03T06:09:20;6.90;;;3.00;;
73382;SDS011;61600;48.126;11.542;2023-04-03T06:11:49;6.65;;;3.28;;
73382;SDS011;61600;48.126;11.542;2023-04-03T06:14:15;5.97;;;2.75;;
73382;SDS011;61600;48.126;11.542;2023-04-03T06:16:41;5.85;;;3.00;;
73382;SDS011;61600;48.126;11.542;2023-04-03T06:19:07;5.75;;;2.92;;
73382;SDS011;61600;48.126;11.542;2023-04-03T06:21:34;8.52;;;3.28;;
73382;SDS011;61600;48.126;11.542;2023-04-03T06:24:01;6.22;;;2.70;;
73382;SDS011;61600;48.126;11.542;2023-04-03T06:26:28;5.53;;;3.00;;
73382;SDS011;61600;48.126;11.542;2023-04-03T06:28:54;6.95;;;3.10;;
73382;SDS011;61600;48.126;11.542;2023-04-03T06:31:20;4.85;;;2.83;;
73382;SDS011;61600;48.126;11.542;2023-04-03T06:33:45;6.30;;;3.08;;
73382;SDS011;61600;48.126;11.542;2023-04-03T06:36:11;6.03;;;2.70;;
73382;SDS011;61600;48.126;11.542;2023-04-03T06:38:37;7.93;;;3.10;;
73382;SDS011;61600;48.126;11.542;2023-04-03T06:41:03;5.53;;;3.10;;
73382;SDS011;61600;48.126;11.542;2023-04-03T06:43:29;4.78;;;2.67;;
73382;SDS011;61600;48.126;11.542;2023-04-03T06:45:57;6.75;;;2.80;;
73382;SDS011;61600;48.126;11.542;2023-04-03T06:48:22;6.10;;;2.95;;
73382;SDS011;61600;48.126;11.542;2023-04-03T06:50:48;5.65;;;3.08;;
73382;SDS011;61600;48.126;11.542;2023-04-03T06:53:14;9.13;;;3.28;;
73382;SDS011;61600;48.126;11.542;2023-04-03T06:55:40;5.72;;;2.75;;
73382;SDS011;61600;48.126;11.542;2023-04-03T06:58:06;8.98;;;3.05;;
73382;SDS011;61600;48.126;11.542;2023-04-03T07:00:32;6.43;;;2.92;;
73382;SDS011;61600;48.126;11.542;2023-04-03T07:02:59;8.70;;;3.55;;
73382;SDS011;61600;48.126;11.542;2023-04-03T07:05:25;13.77;;;3.95;;
73382;SDS011;61600;48.126;11.542;2023-04-03T07:07:51;5.18;;;2.72;;
73382;SDS011;61600;48.126;11.542;2023-04-03T07:10:17;7.28;;;2.70;;
73382;SDS011;61600;48.126;11.542;2023-04-03T07:12:44;8.20;;;3.58;;
73382;SDS011;61600;48.126;11.542;2023-04-03T07:15:10;6.45;;;2.72;;
73382;SDS011;61600;48.126;11.542;2023-04-03T07:17:36;12.07;;;2.80;;
73382;SDS011;61600;48.126;11.542;2023-04-03T07:20:02;5.72;;;3.10;;
73382;SDS011;61600;48.126;11.542;2023-04-03T07:22:29;7.50;;;3.22;;
73382;SDS011;61600;48.126;11.542;2023-04-03T07:24:55;8.10;;;3.53;;
73382;SDS011;61600;48.126;11.542;2023-04-03T07:27:20;5.40;;;2.80;;
73382;SDS011;61600;48.126;11.542;2023-04-03T07:29:46;6.30;;;3.10;;
73382;SDS011;61600;48.126;11.542;2023-04-03T07:32:14;5.00;;;3.15;;
73382;SDS011;61600;48.126;11.542;2023-04-03T07:34:40;5.45;;;2.58;;
73382;SDS011;61600;48.126;11.542;2023-04-03T07:37:26;5.35;;;2.70;;
73382;SDS011;61600;48.126;11.542;2023-04-03T07:39:52;6.90;;;2.95;;
73382;SDS011;61600;48.126;11.542;2023-04-03T07:42:17;8.27;;;3.40;;
73382;SDS011;61600;48.126;11.542;2023-04-03T07:44:43;6.45;;;3.08;;
73382;SDS011;61600;48.126;11.542;2023-04-03T07:47:09;5.30;;;2.65;;
73382;SDS011;61600;48.126;11.542;2023-04-03T07:49:35;5.32;;;2.45;;
73382;SDS011;61600;48.126;11.542;2023-04-03T07:52:05;6.88;;;3.47;;
73382;SDS011;61600;48.126;11.542;2023-04-03T07:54:32;6.85;;;3.20;;
73382;SDS011;61600;48.126;11.542;2023-04-03T07:56:59;8.88;;;3.40;;
73382;SDS011;61600;48.126;11.542;2023-04-03T07:59:24;7.50;;;3.47;;
73382;SDS011;61600;48.126;11.542;2023-04-03T08:01:50;8.38;;;3.38;;
73382;SDS011;61600;48.126;11.542;2023-04-03T08:04:16;6.88;;;2.90;;
73382;SDS011;61600;48.126;11.542;2023-04-03T08:06:41;6.47;;;3.10;;
73382;SDS011;61600;48.126;11.542;2023-04-03T08:09:07;7.05;;;3.50;;
73382;SDS011;61600;48.126;11.542;2023-04-03T08:11:33;7.38;;;3.17;;
73382;SDS011;61600;48.126;11.542;2023-04-03T08:13:59;6.97;;;3.50;;
73382;SDS011;61600;48.126;11.542;2023-04-03T08:16:25;8.38;;;3.85;;
73382;SDS011;61600;48.126;11.542;2023-04-03T08:18:52;8.00;;;3.92;;
73382;SDS011;61600;48.126;11.542;2023-04-03T08:21:19;6.60;;;3.92;;
73382;SDS011;61600;48.126;11.542;2023-04-03T08:23:47;7.20;;;3.83;;
73382;SDS011;61600;48.126;11.542;2023-04-03T08:26:15;6.00;;;3.70;;
73382;SDS011;61600;48.126;11.542;2023-04-03T08:28:42;9.43;;;4.28;;
73382;SDS011;61600;48.126;11.542;2023-04-03T08:31:10;7.38;;;3.97;;
73382;SDS011;61600;48.126;11.542;2023-04-03T08:33:39;10.95;;;4.38;;
73382;SDS011;61600;48.126;11.542;2023-04-03T08:36:07;6.03;;;3.50;;
73382;SDS011;61600;48.126;11.542;2023-04-03T08:38:41;6.35;;;3.55;;
73382;SDS011;61600;48.126;11.542;2023-04-03T08:41:11;10.35;;;4.38;;
73382;SDS011;61600;48.126;11.542;2023-04-03T08:46:21;6.72;;;3.80;;
73382;SDS011;61600;48.126;11.542;2023-04-03T08:48:51;6.00;;;3.40;;
73382;SDS011;61600;48.126;11.542;2023-04-03T08:51:18;5.85;;;3.33;;
73382;SDS011;61600;48.126;11.542;2023-04-03T08:53:55;7.50;;;3.47;;
73382;SDS011;61600;48.126;11.542;2023-04-03T08:56:26;9.15;;;3.55;;
73382;SDS011;61600;48.126;11.542;2023-04-03T08:58:59;8.20;;;3.47;;
73382;SDS011;61600;48.126;11.542;2023-04-03T09:01:35;6.88;;;3.65;;
73382;SDS011;61600;48.126;11.542;2023-04-03T09:04:09;7.85;;;3.85;;
73382;SDS011;61600;48.126;11.542;2023-04-03T09:06:37;7.55;;;3.60;;
73382;SDS011;61600;48.126;11.542;2023-04-03T09:09:12;6.47;;;3.33;;
73382;SDS011;61600;48.126;11.542;2023-04-03T09:20:17;6.55;;;3.35;;
73382;SDS011;61600;48.126;11.542;2023-04-03T09:23:00;6.53;;;3.50;;
73382;SDS011;61600;48.126;11.542;2023-04-03T09:25:31;10.18;;;4.25;;
73382;SDS011;61600;48.126;11.542;2023-04-03T09:28:00;7.10;;;3.70;;
73382;SDS011;61600;48.126;11.542;2023-04-03T09:30:27;5.80;;;3.55;;
73382;SDS011;61600;48.126;11.542;2023-04-03T09:32:54;7.25;;;4.00;;
73382;SDS011;61600;48.126;11.542;2023-04-03T09:37:51;7.85;;;4.25;;
73382;SDS011;61600;48.126;11.542;2023-04-03T09:42:51;6.65;;;3.63;;
73382;SDS011;61600;48.126;11.542;2023-04-03T09:45:23;5.97;;;3.05;;
73382;SDS011;61600;48.126;11.542;2023-04-03T09:50:52;7.18;;;3.13;;
73382;SDS011;61600;48.126;11.542;2023-04-03T09:53:31;4.68;;;2.97;;
73382;SDS011;61600;48.126;11.542;2023-04-03T09:58:47;4.95;;;3.15;;
73382;SDS011;61600;48.126;11.542;2023-04-03T10:01:28;4.75;;;3.03;;
73382;SDS011;61600;48.126;11.542;2023-04-03T10:04:09;5.55;;;3.15;;
73382;SDS011;61600;48.126;11.542;2023-04-03T10:06:46;7.18;;;3.53;;
73382;SDS011;61600;48.126;11.542;2023-04-03T10:14:36;5.57;;;2.95;;
73382;SDS011;61600;48.126;11.542;2023-04-03T10:19:44;3.58;;;2.60;;
73382;SDS011;61600;48.126;11.542;2023-04-03T10:28:00;7.55;;;3.65;;
73382;SDS011;61600;48.126;11.542;2023-04-03T10:30:39;7.38;;;3.30;;
73382;SDS011;61600;48.126;11.542;2023-04-03T10:39:06;6.45;;;3.63;;
73382;SDS011;61600;48.126;11.542;2023-04-03T10:47:20;4.80;;;2.72;;
73382;SDS011;61600;48.126;11.542;2023-04-03T10:57:52;5.45;;;2.83;;
73382;SDS011;61600;48.126;11.542;2023-04-03T11:00:26;5.88;;;2.95;;
73382;SDS011;61600;48.126;11.542;2023-04-03T11:03:05;5.15;;;2.88;;
73382;SDS011;61600;48.126;11.542;2023-04-03T11:05:42;4.45;;;2.72;;
73382;SDS011;61600;48.126;11.542;2023-04-03T11:08:18;6.55;;;2.85;;
73382;SDS011;61600;48.126;11.542;2023-04-03T11:10:48;6.07;;;2.95;;
73382;SDS011;61600;48.126;11.542;2023-04-03T11:13:24;6.80;;;3.15;;
73382;SDS011;61600;48.126;11.542;2023-04-03T11:15:57;6.82;;;3.20;;
73382;SDS011;61600;48.126;11.542;2023-04-03T11:18:28;5.40;;;3.30;;
73382;SDS011;61600;48.126;11.542;2023-04-03T11:21:07;6.68;;;3.22;;
73382;SDS011;61600;48.126;11.542;2023-04-03T11:23:42;6.82;;;2.95;;
73382;SDS011;61600;48.126;11.542;2023-04-03T11:26:09;5.03;;;2.40;;
73382;SDS011;61600;48.126;11.542;2023-04-03T11:28:41;4.82;;;2.75;;
73382;SDS011;61600;48.126;11.542;2023-04-03T11:33:55;4.85;;;2.67;;
73382;SDS011;61600;48.126;11.542;2023-04-03T11:36:39;5.45;;;2.80;;
73382;SDS011;61600;48.126;11.542;2023-04-03T11:39:20;5.13;;;2.45;;
73382;SDS011;61600;48.126;11.542;2023-04-03T11:44:45;6.45;;;2.50;;
73382;SDS011;61600;48.126;11.542;2023-04-03T11:47:43;5.03;;;2.58;;
73382;SDS011;61600;48.126;11.542;2023-04-03T11:58:18;6.18;;;2.15;;
73382;SDS011;61600;48.126;11.542;2023-04-03T12:19:03;3.55;;;1.60;;
73382;SDS011;61600;48.126;11.542;2023-04-03T12:24:24;2.85;;;1.63;;
73382;SDS011;61600;48.126;11.542;2023-04-03T12:29:28;5.07;;;1.75;;
73382;SDS011;61600;48.126;11.542;2023-04-03T12:34:43;3.55;;;1.73;;
73382;SDS011;61600;48.126;11.542;2023-04-03T12:37:21;3.45;;;1.65;;
73382;SDS011;61600;48.126;11.542;2023-04-03T12:42:53;4.63;;;1.50;;
73382;SDS011;61600;48.126;11.542;2023-04-03T12:45:40;3.72;;;1.70;;
73382;SDS011;61600;48.126;11.542;2023-04-03T12:48:16;4.13;;;1.63;;
73382;SDS011;61600;48.126;11.542;2023-04-03T12:50:47;3.70;;;1.80;;
73382;SDS011;61600;48.126;11.542;2023-04-03T12:55:43;4.07;;;1.70;;
73382;SDS011;61600;48.126;11.542;2023-04-03T12:58:28;6.60;;;1.90;;
73382;SDS011;61600;48.126;11.542;2023-04-03T13:01:01;3.60;;;2.03;;
73382;SDS011;61600;48.126;11.542;2023-04-03T13:03:28;4.30;;;1.80;;
73382;SDS011;61600;48.126;11.542;2023-04-03T13:05:59;3.30;;;1.65;;
73382;SDS011;61600;48.126;11.542;2023-04-03T13:08:28;3.55;;;1.60;;
73382;SDS011;61600;48.126;11.542;2023-04-03T13:13:24;2.70;;;1.58;;
73382;SDS011;61600;48.126;11.542;2023-04-03T13:15:51;5.85;;;1.90;;
73382;SDS011;61600;48.126;11.542;2023-04-03T13:18:22;4.13;;;1.63;;
73382;SDS011;61600;48.126;11.542;2023-04-03T13:20:58;3.20;;;1.40;;
73382;SDS011;61600;48.126;11.542;2023-04-03T13:23:38;3.72;;;1.92;;
73382;SDS011;61600;48.126;11.542;2023-04-03T13:26:07;5.70;;;1.60;;
73382;SDS011;61600;48.126;11.542;2023-04-03T13:28:34;3.00;;;1.50;;
73382;SDS011;61600;48.126;11.542;2023-04-03T13:33:30;3.35;;;1.55;;
73382;SDS011;61600;48.126;11.542;2023-04-03T13:36:03;4.10;;;1.50;;
73382;SDS011;61600;48.126;11.542;2023-04-03T13:41:33;5.22;;;2.42;;
73382;SDS011;61600;48.126;11.542;2023-04-03T13:44:30;3.38;;;1.67;;
73382;SDS011;61600;48.126;11.542;2023-04-03T13:47:01;3.33;;;1.48;;
73382;SDS011;61600;48.126;11.542;2023-04-03T13:49:42;2.28;;;1.23;;
73382;SDS011;61600;48.126;11.542;2023-04-03T13:52:32;2.75;;;1.30;;
73382;SDS011;61600;48.126;11.542;2023-04-03T13:55:19;2.38;;;1.10;;
73382;SDS011;61600;48.126;11.542;2023-04-03T13:57:49;4.05;;;1.60;;
73382;SDS011;61600;48.126;11.542;2023-04-03T14:00:31;5.63;;;1.40;;
73382;SDS011;61600;48.126;11.542;2023-04-03T14:03:16;5.05;;;1.50;;
73382;SDS011;61600;48.126;11.542;2023-04-03T14:05:53;3.13;;;1.40;;
73382;SDS011;61600;48.126;11.542;2023-04-03T14:08:20;3.10;;;1.30;;
73382;SDS011;61600;48.126;11.542;2023-04-03T14:11:06;3.28;;;1.50;;
73382;SDS011;61600;48.126;11.542;2023-04-03T14:13:34;3.10;;;1.20;;
73382;SDS011;61600;48.126;11.542;2023-04-03T14:16:01;2.88;;;1.27;;
73382;SDS011;61600;48.126;11.542;2023-04-03T14:18:35;3.40;;;1.15;;
73382;SDS011;61600;48.126;11.542;2023-04-03T14:21:02;4.05;;;1.58;;
73382;SDS011;61600;48.126;11.542;2023-04-03T14:23:28;3.58;;;1.85;;
73382;SDS011;61600;48.126;11.542;2023-04-03T14:25:54;3.97;;;1.52;;
73382;SDS011;61600;48.126;11.542;2023-04-03T14:28:21;5.38;;;1.40;;
73382;SDS011;61600;48.126;11.542;2023-04-03T14:30:49;3.13;;;1.27;;
73382;SDS011;61600;48.126;11.542;2023-04-03T14:33:17;2.75;;;1.17;;
73382;SDS011;61600;48.126;11.542;2023-04-03T14:35:45;6.68;;;1.90;;
73382;SDS011;61600;48.126;11.542;2023-04-03T14:38:20;4.55;;;1.60;;
73382;SDS011;61600;48.126;11.542;2023-04-03T14:40:51;4.18;;;1.80;;
73382;SDS011;61600;48.126;11.542;2023-04-03T14:43:18;3.38;;;1.73;;
73382;SDS011;61600;48.126;11.542;2023-04-03T14:45:45;2.45;;;1.30;;
73382;SDS011;61600;48.126;11.542;2023-04-03T14:50:43;4.63;;;1.50;;
73382;SDS011;61600;48.126;11.542;2023-04-03T14:53:10;3.35;;;1.33;;
73382;SDS011;61600;48.126;11.542;2023-04-03T14:55:38;2.25;;;1.38;;
73382;SDS011;61600;48.126;11.542;2023-04-03T14:58:09;3.88;;;1.38;;
73382;SDS011;61600;48.126;11.542;2023-04-03T15:00:38;4.43;;;1.35;;
73382;SDS011;61600;48.126;11.542;2023-04-03T15:03:04;6.47;;;1.92;;
73382;SDS011;61600;48.126;11.542;2023-04-03T15:05:35;4.15;;;1.40;;
73382;SDS011;61600;48.126;11.542;2023-04-03T15:08:02;3.42;;;1.45;;
73382;SDS011;61600;48.126;11.542;2023-04-03T15:10:29;3.03;;;1.00;;
73382;SDS011;61600;48.126;11.542;2023-04-03T15:12:55;6.15;;;1.30;;
73382;SDS011;61600;48.126;11.542;2023-04-03T15:15:22;5.82;;;1.30;;
73382;SDS011;61600;48.126;11.542;2023-04-03T15:17:55;2.67;;;1.00;;
73382;SDS011;61600;48.126;11.542;2023-04-03T15:20:24;5.35;;;1.40;;
73382;SDS011;61600;48.126;11.542;2023-04-03T15:22:51;1.83;;;0.90;;
73382;SDS011;61600;48.126;11.542;2023-04-03T15:25:17;2.55;;;1.10;;
73382;SDS011;61600;48.126;11.542;2023-04-03T15:27:43;4.22;;;1.25;;
73382;SDS011;61600;48.126;11.542;2023-04-03T15:30:14;3.25;;;1.30;;
73382;SDS011;61600;48.126;11.542;2023-04-03T15:32:44;2.50;;;1.33;;
73382;SDS011;61600;48.126;11.542;2023-04-03T15:35:11;2.50;;;1.40;;
73382;SDS011;61600;48.126;11.542;2023-04-03T15:37:37;2.63;;;1.20;;
73382;SDS011;61600;48.126;11.542;2023-04-03T15:40:04;4.22;;;1.20;;
73382;SDS011;61600;48.126;11.542;2023-04-03T15:42:30;4.97;;;1.42;;
73382;SDS011;61600;48.126;11.542;2023-04-03T15:44:56;2.67;;;1.30;;
73382;SDS011;61600;48.126;11.542;2023-04-03T15:47:22;3.17;;;1.38;;
73382;SDS011;61600;48.126;11.542;2023-04-03T15:49:48;4.22;;;1.30;;
73382;SDS011;61600;48.126;11.542;2023-04-03T15:52:13;3.15;;;1.20;;
73382;SDS011;61600;48.126;11.542;2023-04-03T15:54:39;3.30;;;1.50;;
73382;SDS011;61600;48.126;11.542;2023-04-03T15:57:06;3.53;;;1.25;;
73382;SDS011;61600;48.126;11.542;2023-04-03T15:59:32;4.15;;;1.40;;
73382;SDS011;61600;48.126;11.542;2023-04-03T16:01:58;2.47;;;1.00;;
73382;SDS011;61600;48.126;11.542;2023-04-03T16:04:25;3.55;;;1.15;;
73382;SDS011;61600;48.126;11.542;2023-04-03T16:06:50;3.97;;;1.40;;
73382;SDS011;61600;48.126;11.542;2023-04-03T16:09:17;2.25;;;1.08;;
73382;SDS011;61600;48.126;11.542;2023-04-03T16:11:43;4.03;;;1.40;;
73382;SDS011;61600;48.126;11.542;2023-04-03T16:14:09;2.35;;;1.10;;
73382;SDS011;61600;48.126;11.542;2023-04-03T16:16:35;3.42;;;1.30;;
73382;SDS011;61600;48.126;11.542;2023-04-03T16:19:02;2.63;;;1.58;;
73382;SDS011;61600;48.126;11.542;2023-04-03T16:21:28;4.55;;;2.05;;
73382;SDS011;61600;48.126;11.542;2023-04-03T16:23:56;4.03;;;1.42;;
73382;SDS011;61600;48.126;11.542;2023-04-03T16:26:23;4.03;;;1.30;;
73382;SDS011;61600;48.126;11.542;2023-04-03T16:28:49;5.63;;;1.15;;
73382;SDS011;61600;48.126;11.542;2023-04-03T16:31:15;4.45;;;1.38;;
73382;SDS011;61600;48.126;11.542;2023-04-03T16:33:41;7.32;;;1.42;;
73382;SDS011;61600;48.126;11.542;2023-04-03T16:36:06;3.50;;;1.48;;
73382;SDS011;61600;48.126;11.542;2023-04-03T16:38:32;2.03;;;1.00;;
73382;SDS011;61600;48.126;11.542;2023-04-03T16:40:58;3.70;;;1.33;;
73382;SDS011;61600;48.126;11.542;2023-04-03T16:43:27;2.42;;;1.00;;
73382;SDS011;61600;48.126;11.542;2023-04-03T16:45:53;3.80;;;1.60;;
73382;SDS011;61600;48.126;11.542;2023-04-03T16:48:19;4.63;;;1.30;;